sensor_id;sensor_type;location;lat;lon;timestamp;P1;durP1;ratioP1;P2;durP2;ratioP2
12118;SDS011;6123;48.864;9.200;2023-04-16T00:02:20;19.55;;;17.75;;
12118;SDS011;6123;48.864;9.200;2023-04-16T00:04:46;19.23;;;17.42;;
12118;SDS011;6123;48.864;9.200;2023-04-16T00:07:12;20.38;;;18.38;;
12118;SDS011;6123;48.864;9.200;2023-04-16T00:09:40;20.50;;;18.52;;
12118;SDS011;6123;48.864;9.200;2023-04-16T00:12:05;21.40;;;19.40;;
12118;SDS011;6123;48.864;9.200;2023-04-16T00:14:33;21.25;;;19.15;;
12118;SDS011;6123;48.864;9.200;2023-04-16T00:16:59;18.45;;;16.73;;
12118;SDS011;6123;48.864;9.200;2023-04-16T00:19:25;20.17;;;18.17;;
12118;SDS011;6123;48.864;9.200;2023-04-16T00:21:50;18.25;;;16.65;;
12118;SDS011;6123;48.864;9.200;2023-04-16T00:24:16;19.00;;;17.20;;
12118;SDS011;6123;48.864;9.200;2023-04-16T00:26:41;18.00;;;16.35;;
12118;SDS011;6123;48.864;9.200;2023-04-16T00:29:10;18.05;;;16.45;;
12118;SDS011;6123;48.864;9.200;2023-04-16T00:31:36;18.88;;;16.98;;
12118;SDS011;6123;48.864;9.200;2023-04-16T00:34:02;19.27;;;17.52;;
12118;SDS011;6123;48.864;9.200;2023-04-16T00:36:28;19.45;;;17.65;;
12118;SDS011;6123;48.864;9.200;2023-04-16T00:38:53;19.90;;;18.02;;
12118;SDS011;6123;48.864;9.200;2023-04-16T00:41:20;18.73;;;16.95;;
12118;SDS011;6123;48.864;9.200;2023-04-16T00:43:47;18.95;;;17.20;;
12118;SDS011;6123;48.864;9.200;2023-04-16T00:46:12;18.90;;;17.10;;
12118;SDS011;6123;48.864;9.200;2023-04-16T00:48:39;18.45;;;16.75;;
12118;SDS011;6123;48.864;9.200;2023-04-16T00:51:07;16.40;;;14.93;;
12118;SDS011;6123;48.864;9.200;2023-04-16T00:53:33;17.65;;;16.00;;
12118;SDS011;6123;48.864;9.200;2023-04-16T00:56:01;16.58;;;15.10;;
12118;SDS011;6123;48.864;9.200;2023-04-16T00:58:28;16.95;;;15.35;;
12118;SDS011;6123;48.864;9.200;2023-04-16T01:00:56;15.63;;;14.18;;
12118;SDS011;6123;48.864;9.200;2023-04-16T01:03:23;16.38;;;14.95;;
12118;SDS011;6123;48.864;9.200;2023-04-16T01:05:52;16.05;;;14.68;;
12118;SDS011;6123;48.864;9.200;2023-04-16T01:08:19;15.98;;;14.55;;
12118;SDS011;6123;48.864;9.200;2023-04-16T01:10:48;16.10;;;14.60;;
12118;SDS011;6123;48.864;9.200;2023-04-16T01:13:16;16.02;;;14.63;;
12118;SDS011;6123;48.864;9.200;2023-04-16T01:15:41;17.05;;;15.55;;
12118;SDS011;6123;48.864;9.200;2023-04-16T01:18:13;18.15;;;16.48;;
12118;SDS011;6123;48.864;9.200;2023-04-16T01:20:39;15.73;;;14.35;;
12118;SDS011;6123;48.864;9.200;2023-04-16T01:23:05;16.92;;;15.50;;
12118;SDS011;6123;48.864;9.200;2023-04-16T01:25:31;16.77;;;15.27;;
12118;SDS011;6123;48.864;9.200;2023-04-16T01:27:56;17.05;;;15.45;;
12118;SDS011;6123;48.864;9.200;2023-04-16T01:30:23;15.50;;;14.10;;
12118;SDS011;6123;48.864;9.200;2023-04-16T01:32:49;14.68;;;13.38;;
12118;SDS011;6123;48.864;9.200;2023-04-16T01:35:14;15.13;;;13.63;;
12118;SDS011;6123;48.864;9.200;2023-04-16T01:37:45;14.90;;;13.60;;
12118;SDS011;6123;48.864;9.200;2023-04-16T01:40:12;14.90;;;13.60;;
12118;SDS011;6123;48.864;9.200;2023-04-16T01:42:38;16.30;;;14.82;;
12118;SDS011;6123;48.864;9.200;2023-04-16T01:45:04;15.20;;;13.80;;
12118;SDS011;6123;48.864;9.200;2023-04-16T01:47:30;15.10;;;13.75;;
12118;SDS011;6123;48.864;9.200;2023-04-16T01:49:58;14.23;;;13.00;;
12118;SDS011;6123;48.864;9.200;2023-04-16T01:52:27;16.63;;;15.10;;
12118;SDS011;6123;48.864;9.200;2023-04-16T01:54:55;15.75;;;14.45;;
12118;SDS011;6123;48.864;9.200;2023-04-16T01:57:20;14.82;;;13.52;;
12118;SDS011;6123;48.864;9.200;2023-04-16T01:59:51;14.35;;;13.02;;
12118;SDS011;6123;48.864;9.200;2023-04-16T02:02:16;15.55;;;14.15;;
12118;SDS011;6123;48.864;9.200;2023-04-16T02:04:43;14.38;;;13.07;;
12118;SDS011;6123;48.864;9.200;2023-04-16T02:07:10;16.00;;;14.60;;
12118;SDS011;6123;48.864;9.200;2023-04-16T02:09:36;14.93;;;13.63;;
12118;SDS011;6123;48.864;9.200;2023-04-16T02:12:03;15.73;;;14.32;;
12118;SDS011;6123;48.864;9.200;2023-04-16T02:14:31;17.80;;;16.13;;
12118;SDS011;6123;48.864;9.200;2023-04-16T02:16:57;17.25;;;15.65;;
12118;SDS011;6123;48.864;9.200;2023-04-16T02:19:26;15.43;;;14.02;;
12118;SDS011;6123;48.864;9.200;2023-04-16T02:21:52;15.75;;;14.35;;
12118;SDS011;6123;48.864;9.200;2023-04-16T02:24:20;16.90;;;15.38;;
12118;SDS011;6123;48.864;9.200;2023-04-16T02:26:48;17.58;;;15.98;;
12118;SDS011;6123;48.864;9.200;2023-04-16T02:29:14;17.08;;;15.38;;
12118;SDS011;6123;48.864;9.200;2023-04-16T02:31:40;16.98;;;15.38;;
12118;SDS011;6123;48.864;9.200;2023-04-16T02:34:08;18.17;;;16.48;;
12118;SDS011;6123;48.864;9.200;2023-04-16T02:36:34;16.85;;;15.25;;
12118;SDS011;6123;48.864;9.200;2023-04-16T02:38:59;16.92;;;15.43;;
12118;SDS011;6123;48.864;9.200;2023-04-16T02:41:27;17.65;;;15.98;;
12118;SDS011;6123;48.864;9.200;2023-04-16T02:43:53;17.58;;;16.02;;
12118;SDS011;6123;48.864;9.200;2023-04-16T02:46:18;17.52;;;15.82;;
12118;SDS011;6123;48.864;9.200;2023-04-16T02:48:44;18.83;;;17.13;;
12118;SDS011;6123;48.864;9.200;2023-04-16T02:51:09;17.55;;;15.93;;
12118;SDS011;6123;48.864;9.200;2023-04-16T02:53:40;18.17;;;16.48;;
12118;SDS011;6123;48.864;9.200;2023-04-16T02:56:10;18.23;;;16.50;;
12118;SDS011;6123;48.864;9.200;2023-04-16T02:58:36;18.67;;;16.88;;
12118;SDS011;6123;48.864;9.200;2023-04-16T03:01:01;17.00;;;15.43;;
12118;SDS011;6123;48.864;9.200;2023-04-16T03:03:27;17.10;;;15.48;;
12118;SDS011;6123;48.864;9.200;2023-04-16T03:05:52;18.50;;;16.88;;
12118;SDS011;6123;48.864;9.200;2023-04-16T03:08:21;18.30;;;16.60;;
12118;SDS011;6123;48.864;9.200;2023-04-16T03:10:46;18.17;;;16.48;;
12118;SDS011;6123;48.864;9.200;2023-04-16T03:13:12;17.60;;;15.90;;
12118;SDS011;6123;48.864;9.200;2023-04-16T03:15:38;18.25;;;16.45;;
12118;SDS011;6123;48.864;9.200;2023-04-16T03:18:03;17.48;;;15.77;;
12118;SDS011;6123;48.864;9.200;2023-04-16T03:20:29;17.23;;;15.63;;
12118;SDS011;6123;48.864;9.200;2023-04-16T03:22:57;15.55;;;14.05;;
12118;SDS011;6123;48.864;9.200;2023-04-16T03:25:22;16.48;;;14.75;;
12118;SDS011;6123;48.864;9.200;2023-04-16T03:27:48;17.02;;;15.32;;
12118;SDS011;6123;48.864;9.200;2023-04-16T03:30:14;15.48;;;13.95;;
12118;SDS011;6123;48.864;9.200;2023-04-16T03:32:42;15.52;;;14.02;;
12118;SDS011;6123;48.864;9.200;2023-04-16T03:35:08;16.88;;;15.27;;
12118;SDS011;6123;48.864;9.200;2023-04-16T03:37:34;16.65;;;15.05;;
12118;SDS011;6123;48.864;9.200;2023-04-16T03:40:02;15.10;;;13.60;;
12118;SDS011;6123;48.864;9.200;2023-04-16T03:42:32;15.07;;;13.65;;
12118;SDS011;6123;48.864;9.200;2023-04-16T03:45:00;16.67;;;15.07;;
12118;SDS011;6123;48.864;9.200;2023-04-16T03:47:26;14.63;;;13.15;;
12118;SDS011;6123;48.864;9.200;2023-04-16T03:49:54;15.68;;;14.05;;
12118;SDS011;6123;48.864;9.200;2023-04-16T03:52:20;16.52;;;14.93;;
12118;SDS011;6123;48.864;9.200;2023-04-16T03:54:45;16.17;;;14.57;;
12118;SDS011;6123;48.864;9.200;2023-04-16T03:57:11;17.50;;;15.70;;
12118;SDS011;6123;48.864;9.200;2023-04-16T03:59:36;18.17;;;16.38;;
12118;SDS011;6123;48.864;9.200;2023-04-16T04:02:02;20.23;;;18.43;;
12118;SDS011;6123;48.864;9.200;2023-04-16T04:04:27;19.15;;;17.05;;
12118;SDS011;6123;48.864;9.200;2023-04-16T04:06:53;18.23;;;16.42;;
12118;SDS011;6123;48.864;9.200;2023-04-16T04:09:18;18.00;;;16.20;;
12118;SDS011;6123;48.864;9.200;2023-04-16T04:11:46;18.88;;;16.90;;
12118;SDS011;6123;48.864;9.200;2023-04-16T04:14:15;19.38;;;17.27;;
12118;SDS011;6123;48.864;9.200;2023-04-16T04:16:40;17.73;;;16.02;;
12118;SDS011;6123;48.864;9.200;2023-04-16T04:19:06;17.33;;;15.52;;
12118;SDS011;6123;48.864;9.200;2023-04-16T04:21:31;19.50;;;17.48;;
12118;SDS011;6123;48.864;9.200;2023-04-16T04:23:57;18.17;;;16.27;;
12118;SDS011;6123;48.864;9.200;2023-04-16T04:26:23;20.42;;;17.10;;
12118;SDS011;6123;48.864;9.200;2023-04-16T04:28:48;18.13;;;16.23;;
12118;SDS011;6123;48.864;9.200;2023-04-16T04:31:14;16.48;;;14.85;;
12118;SDS011;6123;48.864;9.200;2023-04-16T04:33:39;19.13;;;17.08;;
12118;SDS011;6123;48.864;9.200;2023-04-16T04:36:05;19.70;;;17.75;;
12118;SDS011;6123;48.864;9.200;2023-04-16T04:38:31;17.55;;;15.63;;
12118;SDS011;6123;48.864;9.200;2023-04-16T04:40:59;17.67;;;15.98;;
12118;SDS011;6123;48.864;9.200;2023-04-16T04:43:25;17.40;;;15.60;;
12118;SDS011;6123;48.864;9.200;2023-04-16T04:45:53;19.08;;;17.08;;
12118;SDS011;6123;48.864;9.200;2023-04-16T04:48:18;18.52;;;16.73;;
12118;SDS011;6123;48.864;9.200;2023-04-16T04:50:45;22.85;;;20.58;;
12118;SDS011;6123;48.864;9.200;2023-04-16T04:53:13;19.85;;;17.73;;
12118;SDS011;6123;48.864;9.200;2023-04-16T04:55:39;18.60;;;16.55;;
12118;SDS011;6123;48.864;9.200;2023-04-16T04:58:05;22.33;;;19.48;;
12118;SDS011;6123;48.864;9.200;2023-04-16T05:00:32;20.20;;;17.80;;
12118;SDS011;6123;48.864;9.200;2023-04-16T05:03:00;20.42;;;18.27;;
12118;SDS011;6123;48.864;9.200;2023-04-16T05:05:27;27.40;;;20.80;;
12118;SDS011;6123;48.864;9.200;2023-04-16T05:07:52;21.15;;;18.40;;
12118;SDS011;6123;48.864;9.200;2023-04-16T05:10:20;25.73;;;20.52;;
12118;SDS011;6123;48.864;9.200;2023-04-16T05:12:48;23.77;;;19.55;;
12118;SDS011;6123;48.864;9.200;2023-04-16T05:15:16;20.73;;;18.48;;
12118;SDS011;6123;48.864;9.200;2023-04-16T05:17:42;20.70;;;17.73;;
12118;SDS011;6123;48.864;9.200;2023-04-16T05:20:08;24.98;;;20.58;;
12118;SDS011;6123;48.864;9.200;2023-04-16T05:22:35;22.02;;;19.65;;
12118;SDS011;6123;48.864;9.200;2023-04-16T05:25:02;27.50;;;22.55;;
12118;SDS011;6123;48.864;9.200;2023-04-16T05:27:28;22.67;;;20.27;;
12118;SDS011;6123;48.864;9.200;2023-04-16T05:29:54;28.00;;;22.35;;
12118;SDS011;6123;48.864;9.200;2023-04-16T05:32:20;28.90;;;23.52;;
12118;SDS011;6123;48.864;9.200;2023-04-16T05:34:49;27.05;;;23.75;;
12118;SDS011;6123;48.864;9.200;2023-04-16T05:37:15;32.33;;;25.98;;
12118;SDS011;6123;48.864;9.200;2023-04-16T05:39:40;30.77;;;24.45;;
12118;SDS011;6123;48.864;9.200;2023-04-16T05:42:06;33.85;;;26.50;;
12118;SDS011;6123;48.864;9.200;2023-04-16T05:44:34;32.83;;;26.88;;
12118;SDS011;6123;48.864;9.200;2023-04-16T05:47:00;38.20;;;28.70;;
12118;SDS011;6123;48.864;9.200;2023-04-16T05:49:25;35.47;;;27.27;;
12118;SDS011;6123;48.864;9.200;2023-04-16T05:51:51;33.42;;;27.05;;
12118;SDS011;6123;48.864;9.200;2023-04-16T05:54:17;38.80;;;29.42;;
12118;SDS011;6123;48.864;9.200;2023-04-16T05:56:42;42.83;;;31.88;;
12118;SDS011;6123;48.864;9.200;2023-04-16T05:59:08;36.22;;;29.08;;
12118;SDS011;6123;48.864;9.200;2023-04-16T06:01:33;36.38;;;28.83;;
12118;SDS011;6123;48.864;9.200;2023-04-16T06:03:59;37.22;;;28.45;;
12118;SDS011;6123;48.864;9.200;2023-04-16T06:06:25;32.72;;;26.83;;
12118;SDS011;6123;48.864;9.200;2023-04-16T06:08:53;34.60;;;27.95;;
12118;SDS011;6123;48.864;9.200;2023-04-16T06:11:19;36.15;;;28.70;;
12118;SDS011;6123;48.864;9.200;2023-04-16T06:13:45;34.42;;;27.52;;
12118;SDS011;6123;48.864;9.200;2023-04-16T06:16:12;34.90;;;27.75;;
12118;SDS011;6123;48.864;9.200;2023-04-16T06:18:41;34.42;;;28.92;;
12118;SDS011;6123;48.864;9.200;2023-04-16T06:21:09;38.75;;;28.98;;
12118;SDS011;6123;48.864;9.200;2023-04-16T06:23:37;32.15;;;25.90;;
12118;SDS011;6123;48.864;9.200;2023-04-16T06:26:03;36.75;;;29.10;;
12118;SDS011;6123;48.864;9.200;2023-04-16T06:28:29;34.55;;;27.45;;
12118;SDS011;6123;48.864;9.200;2023-04-16T06:30:58;39.10;;;28.98;;
12118;SDS011;6123;48.864;9.200;2023-04-16T06:33:23;34.28;;;27.45;;
12118;SDS011;6123;48.864;9.200;2023-04-16T06:35:52;33.72;;;27.70;;
12118;SDS011;6123;48.864;9.200;2023-04-16T06:38:17;36.20;;;28.38;;
12118;SDS011;6123;48.864;9.200;2023-04-16T06:40:46;34.45;;;27.38;;
12118;SDS011;6123;48.864;9.200;2023-04-16T06:43:12;34.75;;;28.02;;
12118;SDS011;6123;48.864;9.200;2023-04-16T06:45:39;38.72;;;28.33;;
12118;SDS011;6123;48.864;9.200;2023-04-16T06:48:05;35.85;;;29.15;;
12118;SDS011;6123;48.864;9.200;2023-04-16T06:50:30;31.90;;;26.88;;
12118;SDS011;6123;48.864;9.200;2023-04-16T06:52:56;29.63;;;26.08;;
12118;SDS011;6123;48.864;9.200;2023-04-16T06:55:22;33.03;;;26.10;;
12118;SDS011;6123;48.864;9.200;2023-04-16T06:57:48;30.13;;;26.42;;
12118;SDS011;6123;48.864;9.200;2023-04-16T07:00:13;30.23;;;26.25;;
12118;SDS011;6123;48.864;9.200;2023-04-16T07:02:39;29.48;;;25.33;;
12118;SDS011;6123;48.864;9.200;2023-04-16T07:05:07;29.55;;;25.17;;
12118;SDS011;6123;48.864;9.200;2023-04-16T07:07:33;30.88;;;26.17;;
12118;SDS011;6123;48.864;9.200;2023-04-16T07:10:01;27.40;;;24.50;;
12118;SDS011;6123;48.864;9.200;2023-04-16T07:12:26;33.33;;;26.65;;
12118;SDS011;6123;48.864;9.200;2023-04-16T07:14:52;32.13;;;25.70;;
12118;SDS011;6123;48.864;9.200;2023-04-16T07:17:18;29.13;;;24.95;;
12118;SDS011;6123;48.864;9.200;2023-04-16T07:19:46;26.83;;;23.90;;
12118;SDS011;6123;48.864;9.200;2023-04-16T07:22:13;28.70;;;25.42;;
12118;SDS011;6123;48.864;9.200;2023-04-16T07:24:39;28.33;;;25.27;;
12118;SDS011;6123;48.864;9.200;2023-04-16T07:27:05;27.67;;;22.95;;
12118;SDS011;6123;48.864;9.200;2023-04-16T07:29:30;24.70;;;22.20;;
12118;SDS011;6123;48.864;9.200;2023-04-16T07:31:59;25.23;;;21.40;;
12118;SDS011;6123;48.864;9.200;2023-04-16T07:34:26;26.13;;;22.88;;
12118;SDS011;6123;48.864;9.200;2023-04-16T07:36:52;26.08;;;22.63;;
12118;SDS011;6123;48.864;9.200;2023-04-16T07:39:22;25.73;;;22.92;;
12118;SDS011;6123;48.864;9.200;2023-04-16T07:41:50;23.55;;;20.92;;
12118;SDS011;6123;48.864;9.200;2023-04-16T07:44:16;27.55;;;23.98;;
12118;SDS011;6123;48.864;9.200;2023-04-16T07:46:44;23.95;;;21.40;;
12118;SDS011;6123;48.864;9.200;2023-04-16T07:49:09;24.25;;;21.67;;
12118;SDS011;6123;48.864;9.200;2023-04-16T07:51:35;24.27;;;21.58;;
12118;SDS011;6123;48.864;9.200;2023-04-16T07:54:00;23.17;;;20.77;;
12118;SDS011;6123;48.864;9.200;2023-04-16T07:56:29;25.15;;;22.45;;
12118;SDS011;6123;48.864;9.200;2023-04-16T07:58:54;24.58;;;21.92;;
12118;SDS011;6123;48.864;9.200;2023-04-16T08:01:20;24.63;;;22.08;;
12118;SDS011;6123;48.864;9.200;2023-04-16T08:03:45;23.75;;;20.13;;
12118;SDS011;6123;48.864;9.200;2023-04-16T08:06:11;23.80;;;21.23;;
12118;SDS011;6123;48.864;9.200;2023-04-16T08:08:37;21.08;;;18.88;;
12118;SDS011;6123;48.864;9.200;2023-04-16T08:11:05;22.75;;;20.30;;
12118;SDS011;6123;48.864;9.200;2023-04-16T08:13:31;20.77;;;18.63;;
12118;SDS011;6123;48.864;9.200;2023-04-16T08:15:58;21.27;;;18.88;;
12118;SDS011;6123;48.864;9.200;2023-04-16T08:18:24;21.52;;;18.92;;
12118;SDS011;6123;48.864;9.200;2023-04-16T08:20:49;20.33;;;18.23;;
12118;SDS011;6123;48.864;9.200;2023-04-16T08:23:15;20.17;;;18.17;;
12118;SDS011;6123;48.864;9.200;2023-04-16T08:25:41;19.95;;;17.65;;
12118;SDS011;6123;48.864;9.200;2023-04-16T08:28:09;18.83;;;16.88;;
12118;SDS011;6123;48.864;9.200;2023-04-16T08:30:35;18.75;;;17.05;;
12118;SDS011;6123;48.864;9.200;2023-04-16T08:33:00;19.60;;;17.60;;
12118;SDS011;6123;48.864;9.200;2023-04-16T08:35:26;19.77;;;17.88;;
12118;SDS011;6123;48.864;9.200;2023-04-16T08:37:52;19.15;;;17.15;;
12118;SDS011;6123;48.864;9.200;2023-04-16T08:40:18;18.90;;;17.10;;
12118;SDS011;6123;48.864;9.200;2023-04-16T08:42:44;20.10;;;18.10;;
12118;SDS011;6123;48.864;9.200;2023-04-16T08:45:16;19.15;;;17.17;;
12118;SDS011;6123;48.864;9.200;2023-04-16T08:47:46;18.65;;;16.67;;
12118;SDS011;6123;48.864;9.200;2023-04-16T08:50:18;19.55;;;17.65;;
12118;SDS011;6123;48.864;9.200;2023-04-16T08:52:51;20.55;;;18.45;;
12118;SDS011;6123;48.864;9.200;2023-04-16T08:55:25;19.35;;;17.45;;
12118;SDS011;6123;48.864;9.200;2023-04-16T08:57:59;19.23;;;17.15;;
12118;SDS011;6123;48.864;9.200;2023-04-16T09:00:27;18.48;;;16.67;;
12118;SDS011;6123;48.864;9.200;2023-04-16T09:02:55;19.33;;;17.42;;
12118;SDS011;6123;48.864;9.200;2023-04-16T09:05:21;18.85;;;16.75;;
12118;SDS011;6123;48.864;9.200;2023-04-16T09:07:49;19.13;;;17.13;;
12118;SDS011;6123;48.864;9.200;2023-04-16T09:10:18;19.95;;;18.05;;
12118;SDS011;6123;48.864;9.200;2023-04-16T09:12:46;20.10;;;18.10;;
12118;SDS011;6123;48.864;9.200;2023-04-16T09:15:12;20.00;;;17.90;;
12118;SDS011;6123;48.864;9.200;2023-04-16T09:17:40;21.23;;;19.13;;
12118;SDS011;6123;48.864;9.200;2023-04-16T09:20:06;18.05;;;16.23;;
12118;SDS011;6123;48.864;9.200;2023-04-16T09:22:33;18.25;;;16.38;;
12118;SDS011;6123;48.864;9.200;2023-04-16T09:24:59;19.23;;;17.20;;
12118;SDS011;6123;48.864;9.200;2023-04-16T09:27:25;19.13;;;17.27;;
12118;SDS011;6123;48.864;9.200;2023-04-16T09:29:53;17.45;;;15.57;;
12118;SDS011;6123;48.864;9.200;2023-04-16T09:32:23;18.52;;;16.63;;
12118;SDS011;6123;48.864;9.200;2023-04-16T09:34:55;18.33;;;16.10;;
12118;SDS011;6123;48.864;9.200;2023-04-16T09:37:25;18.20;;;16.30;;
12118;SDS011;6123;48.864;9.200;2023-04-16T09:39:56;19.58;;;17.58;;
12118;SDS011;6123;48.864;9.200;2023-04-16T09:42:23;19.63;;;17.63;;
12118;SDS011;6123;48.864;9.200;2023-04-16T09:45:07;20.13;;;16.98;;
12118;SDS011;6123;48.864;9.200;2023-04-16T09:47:40;18.67;;;16.77;;
12118;SDS011;6123;48.864;9.200;2023-04-16T09:50:07;20.45;;;18.27;;
12118;SDS011;6123;48.864;9.200;2023-04-16T09:52:41;19.15;;;16.63;;
12118;SDS011;6123;48.864;9.200;2023-04-16T09:55:09;18.25;;;16.45;;
12118;SDS011;6123;48.864;9.200;2023-04-16T09:57:36;18.42;;;16.50;;
12118;SDS011;6123;48.864;9.200;2023-04-16T10:00:06;19.55;;;17.55;;
12118;SDS011;6123;48.864;9.200;2023-04-16T10:02:37;19.80;;;17.52;;
12118;SDS011;6123;48.864;9.200;2023-04-16T10:05:06;20.13;;;18.00;;
12118;SDS011;6123;48.864;9.200;2023-04-16T10:07:33;19.65;;;17.13;;
12118;SDS011;6123;48.864;9.200;2023-04-16T10:10:00;21.02;;;18.13;;
12118;SDS011;6123;48.864;9.200;2023-04-16T10:12:26;21.33;;;18.02;;
12118;SDS011;6123;48.864;9.200;2023-04-16T10:14:53;19.38;;;17.33;;
12118;SDS011;6123;48.864;9.200;2023-04-16T10:17:19;24.40;;;20.77;;
12118;SDS011;6123;48.864;9.200;2023-04-16T10:19:45;21.33;;;17.95;;
12118;SDS011;6123;48.864;9.200;2023-04-16T10:22:11;23.63;;;19.40;;
12118;SDS011;6123;48.864;9.200;2023-04-16T10:24:37;20.10;;;17.92;;
12118;SDS011;6123;48.864;9.200;2023-04-16T10:27:09;22.48;;;18.92;;
12118;SDS011;6123;48.864;9.200;2023-04-16T10:29:34;21.38;;;18.13;;
12118;SDS011;6123;48.864;9.200;2023-04-16T10:32:01;20.50;;;18.33;;
12118;SDS011;6123;48.864;9.200;2023-04-16T10:34:27;18.95;;;16.92;;
12118;SDS011;6123;48.864;9.200;2023-04-16T10:36:53;19.00;;;17.00;;
12118;SDS011;6123;48.864;9.200;2023-04-16T10:39:23;22.42;;;18.70;;
12118;SDS011;6123;48.864;9.200;2023-04-16T10:42:05;19.40;;;17.40;;
12118;SDS011;6123;48.864;9.200;2023-04-16T10:44:37;19.42;;;17.40;;
12118;SDS011;6123;48.864;9.200;2023-04-16T10:47:09;19.35;;;17.33;;
12118;SDS011;6123;48.864;9.200;2023-04-16T10:49:38;18.92;;;15.80;;
12118;SDS011;6123;48.864;9.200;2023-04-16T10:52:09;16.85;;;15.05;;
12118;SDS011;6123;48.864;9.200;2023-04-16T10:54:36;19.08;;;16.00;;
12118;SDS011;6123;48.864;9.200;2023-04-16T10:57:03;16.35;;;14.65;;
12118;SDS011;6123;48.864;9.200;2023-04-16T10:59:33;17.73;;;15.88;;
12118;SDS011;6123;48.864;9.200;2023-04-16T11:02:04;17.42;;;15.07;;
12118;SDS011;6123;48.864;9.200;2023-04-16T11:04:37;16.77;;;14.32;;
12118;SDS011;6123;48.864;9.200;2023-04-16T11:12:17;16.73;;;14.90;;
12118;SDS011;6123;48.864;9.200;2023-04-16T11:15:01;17.92;;;15.23;;
12118;SDS011;6123;48.864;9.200;2023-04-16T11:17:29;15.18;;;13.55;;
12118;SDS011;6123;48.864;9.200;2023-04-16T11:20:29;17.42;;;14.52;;
12118;SDS011;6123;48.864;9.200;2023-04-16T11:22:55;13.27;;;11.68;;
12118;SDS011;6123;48.864;9.200;2023-04-16T11:27:49;13.57;;;12.13;;
12118;SDS011;6123;48.864;9.200;2023-04-16T11:30:18;14.40;;;12.43;;
12118;SDS011;6123;48.864;9.200;2023-04-16T11:32:52;13.60;;;12.18;;
12118;SDS011;6123;48.864;9.200;2023-04-16T11:35:18;13.75;;;11.68;;
12118;SDS011;6123;48.864;9.200;2023-04-16T11:37:48;12.93;;;11.52;;
12118;SDS011;6123;48.864;9.200;2023-04-16T11:40:19;13.38;;;11.95;;
12118;SDS011;6123;48.864;9.200;2023-04-16T11:42:45;12.88;;;11.30;;
12118;SDS011;6123;48.864;9.200;2023-04-16T11:45:11;12.60;;;11.30;;
12118;SDS011;6123;48.864;9.200;2023-04-16T11:47:43;12.75;;;11.25;;
12118;SDS011;6123;48.864;9.200;2023-04-16T11:50:21;12.20;;;11.00;;
12118;SDS011;6123;48.864;9.200;2023-04-16T11:52:47;12.07;;;10.90;;
12118;SDS011;6123;48.864;9.200;2023-04-16T11:55:14;11.20;;;9.10;;
12118;SDS011;6123;48.864;9.200;2023-04-16T11:57:42;10.82;;;9.73;;
12118;SDS011;6123;48.864;9.200;2023-04-16T12:00:07;11.07;;;10.05;;
12118;SDS011;6123;48.864;9.200;2023-04-16T12:02:40;10.98;;;9.98;;
12118;SDS011;6123;48.864;9.200;2023-04-16T12:08:03;10.82;;;9.73;;
12118;SDS011;6123;48.864;9.200;2023-04-16T12:10:31;10.05;;;8.98;;
12118;SDS011;6123;48.864;9.200;2023-04-16T12:13:09;10.30;;;9.20;;
12118;SDS011;6123;48.864;9.200;2023-04-16T12:15:47;9.98;;;8.98;;
12118;SDS011;6123;48.864;9.200;2023-04-16T12:18:17;9.63;;;8.73;;
12118;SDS011;6123;48.864;9.200;2023-04-16T12:20:49;10.88;;;9.35;;
12118;SDS011;6123;48.864;9.200;2023-04-16T12:23:26;10.10;;;9.20;;
12118;SDS011;6123;48.864;9.200;2023-04-16T12:25:56;9.10;;;8.20;;
12118;SDS011;6123;48.864;9.200;2023-04-16T12:28:26;9.90;;;8.90;;
12118;SDS011;6123;48.864;9.200;2023-04-16T12:30:53;9.65;;;8.75;;
12118;SDS011;6123;48.864;9.200;2023-04-16T12:33:20;8.98;;;8.18;;
12118;SDS011;6123;48.864;9.200;2023-04-16T12:35:46;10.23;;;9.27;;
12118;SDS011;6123;48.864;9.200;2023-04-16T12:38:12;9.10;;;8.30;;
12118;SDS011;6123;48.864;9.200;2023-04-16T12:40:39;9.10;;;8.30;;
12118;SDS011;6123;48.864;9.200;2023-04-16T12:43:05;9.52;;;8.57;;
12118;SDS011;6123;48.864;9.200;2023-04-16T12:45:32;10.00;;;8.98;;
12118;SDS011;6123;48.864;9.200;2023-04-16T12:47:58;9.88;;;8.98;;
12118;SDS011;6123;48.864;9.200;2023-04-16T12:50:25;9.75;;;8.85;;
12118;SDS011;6123;48.864;9.200;2023-04-16T12:52:52;10.85;;;9.75;;
12118;SDS011;6123;48.864;9.200;2023-04-16T12:55:19;9.07;;;8.18;;
12118;SDS011;6123;48.864;9.200;2023-04-16T12:57:45;8.63;;;7.90;;
12118;SDS011;6123;48.864;9.200;2023-04-16T13:00:15;9.60;;;8.70;;
12118;SDS011;6123;48.864;9.200;2023-04-16T13:02:41;9.13;;;8.23;;
12118;SDS011;6123;48.864;9.200;2023-04-16T13:05:07;9.98;;;8.98;;
12118;SDS011;6123;48.864;9.200;2023-04-16T13:07:32;9.35;;;8.45;;
12118;SDS011;6123;48.864;9.200;2023-04-16T13:10:01;9.48;;;8.65;;
12118;SDS011;6123;48.864;9.200;2023-04-16T13:12:29;9.52;;;8.63;;
12118;SDS011;6123;48.864;9.200;2023-04-16T13:14:54;9.82;;;8.85;;
12118;SDS011;6123;48.864;9.200;2023-04-16T13:17:23;10.95;;;9.85;;
12118;SDS011;6123;48.864;9.200;2023-04-16T13:19:48;10.75;;;9.70;;
12118;SDS011;6123;48.864;9.200;2023-04-16T13:22:14;10.20;;;9.13;;
12118;SDS011;6123;48.864;9.200;2023-04-16T13:24:42;8.93;;;8.13;;
12118;SDS011;6123;48.864;9.200;2023-04-16T13:27:07;10.80;;;9.70;;
12118;SDS011;6123;48.864;9.200;2023-04-16T13:29:33;10.52;;;9.48;;
12118;SDS011;6123;48.864;9.200;2023-04-16T13:32:02;10.23;;;9.15;;
12118;SDS011;6123;48.864;9.200;2023-04-16T13:34:28;10.90;;;9.82;;
12118;SDS011;6123;48.864;9.200;2023-04-16T13:36:54;10.90;;;9.90;;
12118;SDS011;6123;48.864;9.200;2023-04-16T13:39:22;11.80;;;10.60;;
12118;SDS011;6123;48.864;9.200;2023-04-16T13:41:50;12.27;;;10.98;;
12118;SDS011;6123;48.864;9.200;2023-04-16T13:44:15;12.30;;;11.15;;
12118;SDS011;6123;48.864;9.200;2023-04-16T13:46:41;11.50;;;10.30;;
12118;SDS011;6123;48.864;9.200;2023-04-16T13:49:11;11.52;;;10.43;;
12118;SDS011;6123;48.864;9.200;2023-04-16T13:51:37;10.80;;;9.70;;
12118;SDS011;6123;48.864;9.200;2023-04-16T13:54:03;12.85;;;11.55;;
12118;SDS011;6123;48.864;9.200;2023-04-16T13:56:31;12.63;;;11.40;;
12118;SDS011;6123;48.864;9.200;2023-04-16T13:58:56;11.48;;;10.38;;
12118;SDS011;6123;48.864;9.200;2023-04-16T14:01:22;12.80;;;11.52;;
12118;SDS011;6123;48.864;9.200;2023-04-16T14:03:48;13.18;;;11.88;;
12118;SDS011;6123;48.864;9.200;2023-04-16T14:06:13;13.65;;;12.27;;
12118;SDS011;6123;48.864;9.200;2023-04-16T14:08:42;12.55;;;11.35;;
12118;SDS011;6123;48.864;9.200;2023-04-16T14:11:10;12.18;;;10.98;;
12118;SDS011;6123;48.864;9.200;2023-04-16T14:13:35;12.73;;;11.52;;
12118;SDS011;6123;48.864;9.200;2023-04-16T14:16:04;13.05;;;11.77;;
12118;SDS011;6123;48.864;9.200;2023-04-16T14:18:30;13.23;;;11.95;;
12118;SDS011;6123;48.864;9.200;2023-04-16T14:20:55;14.07;;;12.68;;
12118;SDS011;6123;48.864;9.200;2023-04-16T14:23:25;13.55;;;12.27;;
12118;SDS011;6123;48.864;9.200;2023-04-16T14:25:53;14.95;;;13.45;;
12118;SDS011;6123;48.864;9.200;2023-04-16T14:28:20;14.25;;;12.85;;
12118;SDS011;6123;48.864;9.200;2023-04-16T14:30:45;14.43;;;13.02;;
12118;SDS011;6123;48.864;9.200;2023-04-16T14:33:11;14.80;;;13.30;;
12118;SDS011;6123;48.864;9.200;2023-04-16T14:35:36;14.38;;;13.00;;
12118;SDS011;6123;48.864;9.200;2023-04-16T14:38:02;15.43;;;13.98;;
12118;SDS011;6123;48.864;9.200;2023-04-16T14:40:30;14.85;;;13.32;;
12118;SDS011;6123;48.864;9.200;2023-04-16T14:42:56;15.85;;;14.32;;
12118;SDS011;6123;48.864;9.200;2023-04-16T14:45:21;16.30;;;14.70;;
12118;SDS011;6123;48.864;9.200;2023-04-16T14:47:50;16.08;;;14.40;;